createdAt,value
2023-01-08T00:01:40.994Z,6.37
2023-01-08T00:06:46.181Z,10.20
2023-01-08T00:11:50.167Z,8.13
2023-01-08T00:16:53.894Z,7.70
2023-01-08T00:21:58.776Z,7.03
2023-01-08T00:27:07.839Z,6.27
2023-01-08T00:32:11.317Z,7.93
2023-01-08T00:37:19.077Z,7.57
2023-01-08T00:42:22.687Z,6.70
2023-01-08T00:47:26.191Z,7.07
2023-01-08T00:52:31.151Z,6.77
2023-01-08T00:57:35.452Z,6.43
2023-01-08T01:02:39.445Z,6.47
2023-01-08T01:07:45.599Z,7.67
2023-01-08T01:12:49.063Z,6.77
2023-01-08T01:17:52.472Z,7.83
2023-01-08T01:22:57.341Z,6.63
2023-01-08T01:28:00.731Z,6.17
2023-01-08T01:33:04.184Z,6.63
2023-01-08T01:38:09.056Z,6.10
2023-01-08T01:43:15.099Z,7.33
2023-01-08T01:48:18.561Z,8.67
2023-01-08T01:53:28.558Z,9.73
2023-01-08T01:58:33.583Z,8.37
2023-01-08T02:03:38.857Z,7.53
2023-01-08T02:08:53.408Z,7.43
2023-01-08T02:14:03.464Z,7.93
2023-01-08T02:19:20.327Z,7.97
2023-01-08T02:24:36.314Z,7.30
2023-01-08T02:29:42.362Z,7.10
2023-01-08T02:34:45.777Z,7.80
2023-01-08T02:39:59.681Z,6.80
2023-01-08T02:45:13.275Z,6.73
2023-01-08T02:50:23.923Z,7.00
2023-01-08T02:55:30.113Z,5.83
2023-01-08T03:00:36.304Z,5.50
2023-01-08T03:05:43.205Z,7.13
2023-01-08T03:10:50.838Z,6.70
2023-01-08T03:16:00.518Z,5.23
2023-01-08T03:21:06.785Z,5.70
2023-01-08T03:26:12.072Z,5.83
2023-01-08T03:31:18.914Z,6.17
2023-01-08T03:36:26.373Z,8.33
2023-01-08T03:41:32.980Z,6.73
2023-01-08T03:46:41.956Z,7.13
2023-01-08T03:51:47.587Z,6.73
2023-01-08T03:56:51.102Z,6.00
2023-01-08T04:01:56.107Z,5.13
2023-01-08T04:06:59.696Z,6.73
2023-01-08T04:12:03.100Z,4.97
2023-01-08T04:17:07.981Z,6.07
2023-01-08T04:22:12.119Z,6.70
2023-01-08T04:27:15.574Z,5.83
2023-01-08T04:32:21.232Z,6.17
2023-01-08T04:37:24.635Z,6.40
2023-01-08T04:42:28.097Z,5.57
2023-01-08T04:47:33.002Z,5.73
2023-01-08T04:52:36.472Z,5.07
2023-01-08T04:57:39.941Z,6.23
2023-01-08T05:02:44.993Z,8.57
2023-01-08T05:07:48.613Z,6.10
2023-01-08T05:12:52.094Z,6.27
2023-01-08T05:18:01.722Z,4.93
2023-01-08T05:23:05.093Z,4.87
2023-01-08T05:28:08.588Z,5.37
2023-01-08T05:33:13.409Z,6.47
2023-01-08T05:38:16.926Z,4.67
2023-01-08T05:43:20.401Z,6.77
2023-01-08T05:48:25.235Z,5.73
2023-01-08T05:53:28.713Z,7.60
2023-01-08T05:58:32.456Z,7.40
2023-01-08T06:03:37.735Z,5.83
2023-01-08T06:08:41.425Z,8.07
2023-01-08T06:13:45.533Z,6.83
2023-01-08T06:18:50.470Z,5.60
2023-01-08T06:23:53.949Z,8.63
2023-01-08T06:28:57.386Z,7.33
2023-01-08T06:34:02.270Z,5.87
2023-01-08T06:39:07.416Z,4.10
2023-01-08T06:44:10.971Z,7.17
2023-01-08T06:49:17.628Z,5.33
2023-01-08T06:54:21.291Z,7.03
2023-01-08T06:59:27.858Z,6.43
2023-01-08T07:04:32.793Z,5.13
2023-01-08T07:09:36.713Z,6.60
2023-01-08T07:14:40.137Z,5.10
2023-01-08T07:19:45.023Z,5.73
2023-01-08T07:24:48.511Z,6.67
2023-01-08T07:29:51.953Z,4.97
2023-01-08T07:34:59.358Z,6.03
2023-01-08T07:40:02.787Z,7.03
2023-01-08T07:45:08.321Z,9.47
2023-01-08T07:50:13.243Z,7.37
2023-01-08T07:55:17.011Z,11.10
2023-01-08T08:00:21.198Z,7.87
2023-01-08T08:05:26.040Z,5.80
2023-01-08T08:10:29.538Z,5.43
2023-01-08T08:15:33.719Z,6.33
2023-01-08T08:20:39.115Z,6.63
2023-01-08T08:25:43.476Z,5.97
2023-01-08T08:30:47.098Z,7.03
2023-01-08T08:35:52.673Z,7.90
2023-01-08T08:40:56.099Z,7.87
2023-01-08T08:45:59.603Z,8.57
2023-01-08T08:51:05.908Z,7.20
2023-01-08T08:56:09.764Z,8.87
2023-01-08T09:01:14.258Z,10.83
2023-01-08T09:06:19.101Z,10.77
2023-01-08T09:11:22.535Z,8.30
2023-01-08T09:16:26.061Z,9.57
2023-01-08T09:21:30.999Z,12.03
2023-01-08T09:26:34.358Z,10.77
2023-01-08T09:31:37.769Z,13.63
2023-01-08T09:36:42.608Z,13.77
2023-01-08T09:41:48.939Z,12.00
2023-01-08T09:46:52.513Z,13.90
2023-01-08T09:51:57.920Z,17.90
2023-01-08T09:57:02.049Z,16.93
2023-01-08T10:02:06.265Z,21.20
2023-01-08T10:07:21.329Z,21.23
2023-01-08T10:12:29.049Z,22.43
2023-01-08T10:17:38.440Z,14.30
2023-01-08T10:22:44.844Z,14.67
2023-01-08T10:27:50.298Z,11.67
2023-01-08T10:32:56.160Z,11.30
2023-01-08T10:38:01.381Z,11.00
2023-01-08T10:43:09.858Z,11.80
2023-01-08T10:48:19.484Z,44.93
2023-01-08T10:53:27.492Z,8.43
2023-01-08T10:58:31.869Z,9.53
2023-01-08T11:03:35.378Z,10.10
2023-01-08T11:08:40.519Z,11.00
2023-01-08T11:13:57.272Z,11.67
2023-01-08T11:19:00.838Z,13.03
2023-01-08T11:24:16.610Z,9.70
2023-01-08T11:29:26.280Z,8.03
2023-01-08T11:34:36.287Z,5.87
2023-01-08T11:39:41.405Z,6.43
2023-01-08T11:44:57.766Z,4.27
2023-01-08T11:50:11.867Z,5.50
2023-01-08T11:55:28.643Z,5.00
2023-01-08T12:00:55.364Z,4.03
2023-01-08T12:06:08.531Z,7.80
2023-01-08T12:11:22.287Z,2.57
2023-01-08T12:16:37.579Z,3.33
2023-01-08T12:21:55.355Z,3.43
2023-01-08T12:27:06.555Z,2.30
2023-01-08T12:32:23.825Z,3.47
2023-01-08T12:37:32.702Z,2.60
2023-01-08T12:42:47.135Z,4.37
2023-01-08T12:48:00.584Z,2.83
2023-01-08T12:53:10.287Z,3.10
2023-01-08T12:58:27.181Z,4.20
2023-01-08T13:03:33.399Z,4.43
2023-01-08T13:08:38.927Z,3.20
2023-01-08T13:13:45.404Z,3.07
2023-01-08T13:18:57.299Z,4.00
2023-01-08T13:24:23.175Z,3.60
2023-01-08T13:29:40.047Z,4.13
2023-01-08T13:34:43.671Z,4.07
2023-01-08T13:39:47.204Z,2.80
2023-01-08T13:44:53.923Z,2.20
2023-01-08T13:49:58.241Z,2.73
2023-01-08T13:55:04.948Z,2.17
2023-01-08T14:00:19.438Z,2.87
2023-01-08T14:05:27.342Z,3.87
2023-01-08T14:10:32.065Z,4.20
2023-01-08T14:15:39.612Z,7.60
2023-01-08T14:20:49.446Z,4.50
2023-01-08T14:25:53.564Z,4.30
2023-01-08T14:30:59.169Z,5.03
2023-01-08T14:36:03.589Z,3.97
2023-01-08T14:41:11.007Z,4.77
2023-01-08T14:46:21.523Z,5.27
2023-01-08T14:51:27.311Z,6.00
2023-01-08T14:56:33.453Z,6.00
2023-01-08T15:01:38.852Z,5.27
2023-01-08T15:06:42.637Z,6.20
2023-01-08T15:11:53.700Z,7.00
2023-01-08T15:17:00.430Z,6.40
2023-01-08T15:22:04.411Z,5.40
2023-01-08T15:27:10.876Z,4.83
2023-01-08T15:32:23.590Z,4.83
2023-01-08T15:37:27.221Z,4.17
2023-01-08T15:42:50.872Z,4.80
2023-01-08T15:47:55.822Z,4.67
2023-01-08T15:53:01.209Z,5.60
2023-01-08T15:58:05.121Z,5.00
2023-01-08T16:03:10.275Z,3.80
2023-01-08T16:08:14.140Z,4.43
2023-01-08T16:13:17.802Z,3.20
2023-01-08T16:18:22.930Z,3.43
2023-01-08T16:23:27.072Z,3.50
2023-01-08T16:28:30.851Z,5.00
2023-01-08T16:33:37.277Z,4.57
2023-01-08T16:38:41.496Z,5.63
2023-01-08T16:43:45.562Z,5.80
2023-01-08T16:48:51.867Z,4.30
2023-01-08T16:53:57.890Z,4.57
2023-01-08T16:59:07.197Z,8.40
2023-01-08T17:04:14.302Z,8.23
2023-01-08T17:09:17.904Z,8.13
2023-01-08T17:14:21.691Z,7.13
2023-01-08T17:19:28.617Z,5.70
2023-01-08T17:24:32.680Z,6.93
2023-01-08T17:29:36.331Z,7.90
2023-01-08T17:34:41.762Z,6.83
2023-01-08T17:39:45.933Z,5.27
2023-01-08T17:44:49.863Z,4.13
2023-01-08T17:49:58.342Z,5.30
2023-01-08T17:55:02.939Z,4.50
2023-01-08T18:00:08.440Z,4.27
2023-01-08T18:05:14.415Z,6.10
2023-01-08T18:10:18.558Z,11.13
2023-01-08T18:15:22.807Z,18.80
2023-01-08T18:20:27.901Z,13.23
2023-01-08T18:25:32.489Z,11.70
2023-01-08T18:30:37.078Z,9.47
2023-01-08T18:35:42.905Z,9.53
2023-01-08T18:40:49.065Z,8.00
2023-01-08T18:45:53.062Z,9.17
2023-01-08T18:51:04.402Z,7.50
2023-01-08T18:56:10.452Z,16.07
2023-01-08T19:01:14.942Z,15.80
2023-01-08T19:06:21.227Z,9.83
2023-01-08T19:11:25.097Z,11.57
2023-01-08T19:16:29.908Z,13.30
2023-01-08T19:21:36.280Z,10.73
2023-01-08T19:26:40.557Z,9.93
2023-01-08T19:31:44.283Z,8.83
2023-01-08T19:36:49.819Z,9.60
2023-01-08T19:42:12.385Z,9.03
2023-01-08T19:47:16.604Z,10.50
2023-01-08T19:52:24.376Z,7.60
2023-01-08T19:57:29.077Z,8.87
2023-01-08T20:02:34.500Z,9.03
2023-01-08T20:07:40.939Z,9.67
2023-01-08T20:12:45.676Z,6.80
2023-01-08T20:17:51.021Z,6.27
2023-01-08T20:22:57.167Z,7.23
2023-01-08T20:28:02.101Z,7.63
2023-01-08T20:33:06.487Z,8.57
2023-01-08T20:38:14.577Z,8.50
2023-01-08T20:43:19.506Z,8.60
2023-01-08T20:48:23.697Z,10.10
2023-01-08T20:53:29.643Z,42.60
2023-01-08T20:58:33.614Z,44.17
2023-01-08T21:03:37.538Z,13.43
2023-01-08T21:08:43.503Z,13.70
2023-01-08T21:13:48.242Z,12.13
2023-01-08T21:18:52.341Z,10.17
2023-01-08T21:23:58.172Z,8.17
2023-01-08T21:29:03.160Z,12.53
2023-01-08T21:34:08.994Z,10.33
2023-01-08T21:39:14.081Z,12.27
2023-01-08T21:44:36.782Z,9.60
2023-01-08T21:49:40.559Z,8.30
2023-01-08T21:54:45.574Z,7.57
2023-01-08T21:59:50.648Z,11.80
2023-01-08T22:04:56.484Z,11.53
2023-01-08T22:10:01.831Z,18.70
2023-01-08T22:15:05.865Z,6.83
2023-01-08T22:20:10.741Z,5.53
2023-01-08T22:25:15.700Z,7.03
2023-01-08T22:30:19.464Z,8.50
2023-01-08T22:35:22.911Z,8.27
2023-01-08T22:40:27.844Z,8.23
2023-01-08T22:45:31.527Z,6.73
2023-01-08T22:50:35.147Z,8.80
2023-01-08T22:55:43.848Z,6.83
2023-01-08T23:00:47.364Z,10.10
2023-01-08T23:05:50.799Z,8.13
2023-01-08T23:10:57.481Z,8.73
2023-01-08T23:16:00.940Z,10.00
2023-01-08T23:21:05.087Z,9.53
2023-01-08T23:26:11.753Z,10.17
2023-01-08T23:31:27.379Z,10.37
2023-01-08T23:36:30.876Z,7.13
2023-01-08T23:41:35.995Z,7.53
2023-01-08T23:46:39.435Z,7.40
2023-01-08T23:51:42.960Z,9.57
2023-01-08T23:56:47.829Z,8.00
